sensor_id;sensor_type;location;lat;lon;timestamp;P1;durP1;ratioP1;P2;durP2;ratioP2
26181;SDS011;13927;51.534;11.866;2022-09-01T00:01:32;5.03;;;1.17;;
26181;SDS011;13927;51.534;11.866;2022-09-01T00:04:05;2.70;;;0.98;;
26181;SDS011;13927;51.534;11.866;2022-09-01T00:06:34;4.43;;;1.10;;
26181;SDS011;13927;51.534;11.866;2022-09-01T00:09:05;3.47;;;1.17;;
26181;SDS011;13927;51.534;11.866;2022-09-01T00:11:35;2.30;;;1.10;;
26181;SDS011;13927;51.534;11.866;2022-09-01T00:14:03;1.95;;;1.10;;
26181;SDS011;13927;51.534;11.866;2022-09-01T00:16:30;3.65;;;1.20;;
26181;SDS011;13927;51.534;11.866;2022-09-01T00:18:57;2.60;;;0.88;;
26181;SDS011;13927;51.534;11.866;2022-09-01T00:21:24;2.42;;;1.10;;
26181;SDS011;13927;51.534;11.866;2022-09-01T00:23:54;2.17;;;0.88;;
26181;SDS011;13927;51.534;11.866;2022-09-01T00:26:20;4.07;;;1.10;;
26181;SDS011;13927;51.534;11.866;2022-09-01T00:28:46;1.75;;;1.20;;
26181;SDS011;13927;51.534;11.866;2022-09-01T00:31:12;1.85;;;1.00;;
26181;SDS011;13927;51.534;11.866;2022-09-01T00:33:42;2.65;;;1.30;;
26181;SDS011;13927;51.534;11.866;2022-09-01T00:36:08;2.55;;;1.50;;
26181;SDS011;13927;51.534;11.866;2022-09-01T00:38:35;1.40;;;0.90;;
26181;SDS011;13927;51.534;11.866;2022-09-01T00:41:02;1.40;;;1.00;;
26181;SDS011;13927;51.534;11.866;2022-09-01T00:43:46;2.88;;;1.08;;
26181;SDS011;13927;51.534;11.866;2022-09-01T00:46:17;2.20;;;1.25;;
26181;SDS011;13927;51.534;11.866;2022-09-01T00:48:58;1.75;;;0.70;;
26181;SDS011;13927;51.534;11.866;2022-09-01T00:51:37;1.98;;;1.15;;
26181;SDS011;13927;51.534;11.866;2022-09-01T00:54:06;2.10;;;1.20;;
26181;SDS011;13927;51.534;11.866;2022-09-01T00:56:36;2.20;;;1.10;;
26181;SDS011;13927;51.534;11.866;2022-09-01T00:59:05;2.28;;;1.05;;
26181;SDS011;13927;51.534;11.866;2022-09-01T01:01:33;1.83;;;1.02;;
26181;SDS011;13927;51.534;11.866;2022-09-01T01:04:01;1.98;;;1.20;;
26181;SDS011;13927;51.534;11.866;2022-09-01T01:06:28;2.28;;;1.38;;
26181;SDS011;13927;51.534;11.866;2022-09-01T01:08:57;1.63;;;0.90;;
26181;SDS011;13927;51.534;11.866;2022-09-01T01:11:26;2.15;;;1.10;;
26181;SDS011;13927;51.534;11.866;2022-09-01T01:13:57;2.28;;;1.17;;
26181;SDS011;13927;51.534;11.866;2022-09-01T01:16:36;3.55;;;1.10;;
26181;SDS011;13927;51.534;11.866;2022-09-01T01:19:08;2.58;;;1.10;;
26181;SDS011;13927;51.534;11.866;2022-09-01T01:22:05;2.22;;;1.08;;
26181;SDS011;13927;51.534;11.866;2022-09-01T01:24:56;1.80;;;1.20;;
26181;SDS011;13927;51.534;11.866;2022-09-01T01:27:22;2.00;;;1.23;;
26181;SDS011;13927;51.534;11.866;2022-09-01T01:29:48;2.50;;;1.45;;
26181;SDS011;13927;51.534;11.866;2022-09-01T01:32:16;2.47;;;1.00;;
26181;SDS011;13927;51.534;11.866;2022-09-01T01:34:42;2.05;;;1.10;;
26181;SDS011;13927;51.534;11.866;2022-09-01T01:37:09;2.67;;;1.30;;
26181;SDS011;13927;51.534;11.866;2022-09-01T01:39:38;2.20;;;1.35;;
26181;SDS011;13927;51.534;11.866;2022-09-01T01:42:06;2.80;;;1.27;;
26181;SDS011;13927;51.534;11.866;2022-09-01T01:44:33;1.58;;;1.05;;
26181;SDS011;13927;51.534;11.866;2022-09-01T01:47:02;2.13;;;1.10;;
26181;SDS011;13927;51.534;11.866;2022-09-01T01:49:36;3.42;;;1.20;;
26181;SDS011;13927;51.534;11.866;2022-09-01T01:52:08;3.33;;;1.08;;
26181;SDS011;13927;51.534;11.866;2022-09-01T01:54:42;2.88;;;1.23;;
26181;SDS011;13927;51.534;11.866;2022-09-01T01:57:10;4.05;;;1.25;;
26181;SDS011;13927;51.534;11.866;2022-09-01T01:59:39;4.65;;;1.15;;
26181;SDS011;13927;51.534;11.866;2022-09-01T02:02:05;2.80;;;1.02;;
26181;SDS011;13927;51.534;11.866;2022-09-01T02:04:32;2.85;;;1.30;;
26181;SDS011;13927;51.534;11.866;2022-09-01T02:06:58;2.35;;;1.58;;
26181;SDS011;13927;51.534;11.866;2022-09-01T02:09:24;1.60;;;1.08;;
26181;SDS011;13927;51.534;11.866;2022-09-01T02:11:50;4.85;;;1.10;;
26181;SDS011;13927;51.534;11.866;2022-09-01T02:14:21;1.83;;;1.20;;
26181;SDS011;13927;51.534;11.866;2022-09-01T02:16:47;4.15;;;1.40;;
26181;SDS011;13927;51.534;11.866;2022-09-01T02:19:14;1.90;;;1.10;;
26181;SDS011;13927;51.534;11.866;2022-09-01T02:21:43;2.33;;;1.30;;
26181;SDS011;13927;51.534;11.866;2022-09-01T02:24:12;2.05;;;1.20;;
26181;SDS011;13927;51.534;11.866;2022-09-01T02:26:40;1.50;;;1.10;;
26181;SDS011;13927;51.534;11.866;2022-09-01T02:29:12;2.38;;;1.55;;
26181;SDS011;13927;51.534;11.866;2022-09-01T02:31:47;2.42;;;1.17;;
26181;SDS011;13927;51.534;11.866;2022-09-01T02:34:16;3.17;;;1.58;;
26181;SDS011;13927;51.534;11.866;2022-09-01T02:36:45;2.45;;;1.60;;
26181;SDS011;13927;51.534;11.866;2022-09-01T02:39:14;2.22;;;1.67;;
26181;SDS011;13927;51.534;11.866;2022-09-01T02:41:49;1.98;;;1.52;;
26181;SDS011;13927;51.534;11.866;2022-09-01T02:44:16;3.10;;;1.58;;
26181;SDS011;13927;51.534;11.866;2022-09-01T02:46:45;2.50;;;1.50;;
26181;SDS011;13927;51.534;11.866;2022-09-01T02:49:16;3.78;;;1.55;;
26181;SDS011;13927;51.534;11.866;2022-09-01T02:51:50;2.95;;;1.73;;
26181;SDS011;13927;51.534;11.866;2022-09-01T02:54:22;2.75;;;1.52;;
26181;SDS011;13927;51.534;11.866;2022-09-01T02:56:49;2.28;;;1.63;;
26181;SDS011;13927;51.534;11.866;2022-09-01T02:59:19;2.15;;;1.63;;
26181;SDS011;13927;51.534;11.866;2022-09-01T03:01:48;5.22;;;1.65;;
26181;SDS011;13927;51.534;11.866;2022-09-01T03:04:17;5.53;;;1.60;;
26181;SDS011;13927;51.534;11.866;2022-09-01T03:06:44;3.17;;;1.40;;
26181;SDS011;13927;51.534;11.866;2022-09-01T03:09:12;2.15;;;1.50;;
26181;SDS011;13927;51.534;11.866;2022-09-01T03:11:42;2.50;;;1.70;;
26181;SDS011;13927;51.534;11.866;2022-09-01T03:14:11;3.35;;;2.08;;
26181;SDS011;13927;51.534;11.866;2022-09-01T03:16:38;3.08;;;1.60;;
26181;SDS011;13927;51.534;11.866;2022-09-01T03:19:05;2.45;;;1.40;;
26181;SDS011;13927;51.534;11.866;2022-09-01T03:21:33;3.03;;;1.40;;
26181;SDS011;13927;51.534;11.866;2022-09-01T03:24:01;4.25;;;1.60;;
26181;SDS011;13927;51.534;11.866;2022-09-01T03:26:28;5.97;;;1.65;;
26181;SDS011;13927;51.534;11.866;2022-09-01T03:28:55;7.28;;;1.30;;
26181;SDS011;13927;51.534;11.866;2022-09-01T03:31:22;6.25;;;2.55;;
26181;SDS011;13927;51.534;11.866;2022-09-01T03:33:51;4.60;;;1.70;;
26181;SDS011;13927;51.534;11.866;2022-09-01T03:36:21;2.88;;;1.42;;
26181;SDS011;13927;51.534;11.866;2022-09-01T03:38:49;4.28;;;1.88;;
26181;SDS011;13927;51.534;11.866;2022-09-01T03:41:17;2.95;;;1.40;;
26181;SDS011;13927;51.534;11.866;2022-09-01T03:43:46;3.25;;;1.60;;
26181;SDS011;13927;51.534;11.866;2022-09-01T03:46:13;3.05;;;1.48;;
26181;SDS011;13927;51.534;11.866;2022-09-01T03:48:44;3.28;;;1.40;;
26181;SDS011;13927;51.534;11.866;2022-09-01T03:51:13;2.15;;;1.67;;
26181;SDS011;13927;51.534;11.866;2022-09-01T03:53:39;2.53;;;1.63;;
26181;SDS011;13927;51.534;11.866;2022-09-01T03:56:05;3.70;;;1.75;;
26181;SDS011;13927;51.534;11.866;2022-09-01T03:58:32;3.05;;;1.50;;
26181;SDS011;13927;51.534;11.866;2022-09-01T04:00:59;2.72;;;1.40;;
26181;SDS011;13927;51.534;11.866;2022-09-01T04:03:27;3.97;;;1.60;;
26181;SDS011;13927;51.534;11.866;2022-09-01T04:05:56;3.72;;;1.55;;
26181;SDS011;13927;51.534;11.866;2022-09-01T04:08:24;3.78;;;2.10;;
26181;SDS011;13927;51.534;11.866;2022-09-01T04:10:55;3.30;;;2.05;;
26181;SDS011;13927;51.534;11.866;2022-09-01T04:13:29;4.32;;;2.90;;
26181;SDS011;13927;51.534;11.866;2022-09-01T04:16:00;4.95;;;2.40;;
26181;SDS011;13927;51.534;11.866;2022-09-01T04:18:26;4.57;;;2.33;;
26181;SDS011;13927;51.534;11.866;2022-09-01T04:20:53;5.28;;;2.30;;
26181;SDS011;13927;51.534;11.866;2022-09-01T04:23:31;5.05;;;2.17;;
26181;SDS011;13927;51.534;11.866;2022-09-01T04:26:00;3.67;;;2.25;;
26181;SDS011;13927;51.534;11.866;2022-09-01T04:28:42;2.88;;;2.00;;
26181;SDS011;13927;51.534;11.866;2022-09-01T04:31:12;2.97;;;2.15;;
26181;SDS011;13927;51.534;11.866;2022-09-01T04:33:43;3.13;;;2.30;;
26181;SDS011;13927;51.534;11.866;2022-09-01T04:38:44;3.53;;;1.88;;
26181;SDS011;13927;51.534;11.866;2022-09-01T04:41:11;5.10;;;2.53;;
26181;SDS011;13927;51.534;11.866;2022-09-01T04:43:42;3.00;;;2.00;;
26181;SDS011;13927;51.534;11.866;2022-09-01T04:46:11;3.58;;;1.88;;
26181;SDS011;13927;51.534;11.866;2022-09-01T04:48:41;4.82;;;2.13;;
26181;SDS011;13927;51.534;11.866;2022-09-01T04:51:09;4.43;;;2.20;;
26181;SDS011;13927;51.534;11.866;2022-09-01T04:53:37;5.93;;;2.33;;
26181;SDS011;13927;51.534;11.866;2022-09-01T04:56:05;7.07;;;2.63;;
26181;SDS011;13927;51.534;11.866;2022-09-01T04:58:33;3.60;;;2.03;;
26181;SDS011;13927;51.534;11.866;2022-09-01T05:01:01;5.13;;;2.22;;
26181;SDS011;13927;51.534;11.866;2022-09-01T05:03:37;4.25;;;2.20;;
26181;SDS011;13927;51.534;11.866;2022-09-01T05:06:03;2.70;;;1.85;;
26181;SDS011;13927;51.534;11.866;2022-09-01T05:08:29;4.00;;;2.00;;
26181;SDS011;13927;51.534;11.866;2022-09-01T05:10:59;4.28;;;2.13;;
26181;SDS011;13927;51.534;11.866;2022-09-01T05:13:31;3.77;;;1.97;;
26181;SDS011;13927;51.534;11.866;2022-09-01T05:16:01;5.47;;;1.90;;
26181;SDS011;13927;51.534;11.866;2022-09-01T05:18:30;4.18;;;2.10;;
26181;SDS011;13927;51.534;11.866;2022-09-01T05:20:56;5.18;;;2.00;;
26181;SDS011;13927;51.534;11.866;2022-09-01T05:23:22;6.97;;;2.10;;
26181;SDS011;13927;51.534;11.866;2022-09-01T05:25:50;5.30;;;1.90;;
26181;SDS011;13927;51.534;11.866;2022-09-01T05:28:19;4.35;;;1.90;;
26181;SDS011;13927;51.534;11.866;2022-09-01T05:30:49;3.75;;;1.77;;
26181;SDS011;13927;51.534;11.866;2022-09-01T05:33:18;5.32;;;1.85;;
26181;SDS011;13927;51.534;11.866;2022-09-01T05:35:53;4.63;;;2.13;;
26181;SDS011;13927;51.534;11.866;2022-09-01T05:38:21;9.60;;;2.90;;
26181;SDS011;13927;51.534;11.866;2022-09-01T05:40:58;16.13;;;2.38;;
26181;SDS011;13927;51.534;11.866;2022-09-01T05:43:27;13.93;;;2.40;;
26181;SDS011;13927;51.534;11.866;2022-09-01T05:45:54;13.15;;;2.35;;
26181;SDS011;13927;51.534;11.866;2022-09-01T05:48:25;8.23;;;2.60;;
26181;SDS011;13927;51.534;11.866;2022-09-01T05:50:55;8.48;;;1.67;;
26181;SDS011;13927;51.534;11.866;2022-09-01T05:53:23;4.93;;;2.08;;
26181;SDS011;13927;51.534;11.866;2022-09-01T05:55:52;4.80;;;1.98;;
26181;SDS011;13927;51.534;11.866;2022-09-01T05:58:21;3.70;;;2.47;;
26181;SDS011;13927;51.534;11.866;2022-09-01T06:00:52;4.22;;;1.90;;
26181;SDS011;13927;51.534;11.866;2022-09-01T06:03:21;3.78;;;2.25;;
26181;SDS011;13927;51.534;11.866;2022-09-01T06:05:48;5.65;;;2.08;;
26181;SDS011;13927;51.534;11.866;2022-09-01T06:08:18;4.65;;;1.85;;
26181;SDS011;13927;51.534;11.866;2022-09-01T06:10:47;4.65;;;2.45;;
26181;SDS011;13927;51.534;11.866;2022-09-01T06:13:14;3.53;;;1.92;;
26181;SDS011;13927;51.534;11.866;2022-09-01T06:15:45;7.40;;;2.17;;
26181;SDS011;13927;51.534;11.866;2022-09-01T06:18:17;7.13;;;2.45;;
26181;SDS011;13927;51.534;11.866;2022-09-01T06:20:46;5.55;;;2.25;;
26181;SDS011;13927;51.534;11.866;2022-09-01T06:23:13;8.27;;;2.47;;
26181;SDS011;13927;51.534;11.866;2022-09-01T06:25:41;4.45;;;2.35;;
26181;SDS011;13927;51.534;11.866;2022-09-01T06:28:14;4.38;;;1.67;;
26181;SDS011;13927;51.534;11.866;2022-09-01T06:30:42;4.25;;;2.00;;
26181;SDS011;13927;51.534;11.866;2022-09-01T06:33:10;4.10;;;1.60;;
26181;SDS011;13927;51.534;11.866;2022-09-01T06:35:38;2.60;;;1.80;;
26181;SDS011;13927;51.534;11.866;2022-09-01T06:38:06;5.70;;;1.58;;
26181;SDS011;13927;51.534;11.866;2022-09-01T06:40:34;3.33;;;1.80;;
26181;SDS011;13927;51.534;11.866;2022-09-01T06:43:03;3.22;;;1.55;;
26181;SDS011;13927;51.534;11.866;2022-09-01T06:45:32;2.58;;;1.70;;
26181;SDS011;13927;51.534;11.866;2022-09-01T06:48:13;5.75;;;1.95;;
26181;SDS011;13927;51.534;11.866;2022-09-01T06:50:40;4.03;;;1.50;;
26181;SDS011;13927;51.534;11.866;2022-09-01T06:53:06;3.35;;;1.67;;
26181;SDS011;13927;51.534;11.866;2022-09-01T06:55:39;5.25;;;1.70;;
26181;SDS011;13927;51.534;11.866;2022-09-01T06:58:06;6.45;;;2.63;;
26181;SDS011;13927;51.534;11.866;2022-09-01T07:00:36;5.10;;;1.73;;
26181;SDS011;13927;51.534;11.866;2022-09-01T07:03:06;10.48;;;2.30;;
26181;SDS011;13927;51.534;11.866;2022-09-01T07:05:38;3.35;;;1.73;;
26181;SDS011;13927;51.534;11.866;2022-09-01T07:08:06;2.28;;;1.40;;
26181;SDS011;13927;51.534;11.866;2022-09-01T07:10:38;2.80;;;1.88;;
26181;SDS011;13927;51.534;11.866;2022-09-01T07:13:16;2.88;;;1.50;;
26181;SDS011;13927;51.534;11.866;2022-09-01T07:15:50;5.93;;;1.88;;
26181;SDS011;13927;51.534;11.866;2022-09-01T07:18:19;3.83;;;1.50;;
26181;SDS011;13927;51.534;11.866;2022-09-01T07:20:49;6.00;;;1.77;;
26181;SDS011;13927;51.534;11.866;2022-09-01T07:23:17;3.70;;;1.60;;
26181;SDS011;13927;51.534;11.866;2022-09-01T07:25:44;5.10;;;1.88;;
26181;SDS011;13927;51.534;11.866;2022-09-01T07:28:13;7.18;;;1.42;;
26181;SDS011;13927;51.534;11.866;2022-09-01T07:30:42;7.30;;;1.45;;
26181;SDS011;13927;51.534;11.866;2022-09-01T07:33:12;4.10;;;1.55;;
26181;SDS011;13927;51.534;11.866;2022-09-01T07:35:44;4.10;;;1.30;;
26181;SDS011;13927;51.534;11.866;2022-09-01T07:38:11;2.60;;;1.40;;
26181;SDS011;13927;51.534;11.866;2022-09-01T07:40:38;2.70;;;1.25;;
26181;SDS011;13927;51.534;11.866;2022-09-01T07:43:07;2.85;;;1.10;;
26181;SDS011;13927;51.534;11.866;2022-09-01T07:45:54;2.92;;;1.30;;
26181;SDS011;13927;51.534;11.866;2022-09-01T07:48:23;5.47;;;1.20;;
26181;SDS011;13927;51.534;11.866;2022-09-01T07:50:52;7.55;;;1.30;;
26181;SDS011;13927;51.534;11.866;2022-09-01T07:53:25;7.82;;;1.70;;
26181;SDS011;13927;51.534;11.866;2022-09-01T07:55:55;10.32;;;1.77;;
26181;SDS011;13927;51.534;11.866;2022-09-01T07:58:26;6.10;;;1.40;;
26181;SDS011;13927;51.534;11.866;2022-09-01T08:00:53;2.03;;;1.25;;
26181;SDS011;13927;51.534;11.866;2022-09-01T08:03:21;2.50;;;1.38;;
26181;SDS011;13927;51.534;11.866;2022-09-01T08:05:48;2.78;;;1.27;;
26181;SDS011;13927;51.534;11.866;2022-09-01T08:08:18;2.85;;;1.33;;
26181;SDS011;13927;51.534;11.866;2022-09-01T08:10:44;5.47;;;1.50;;
26181;SDS011;13927;51.534;11.866;2022-09-01T08:13:12;3.88;;;1.45;;
26181;SDS011;13927;51.534;11.866;2022-09-01T08:15:38;4.80;;;1.45;;
26181;SDS011;13927;51.534;11.866;2022-09-01T08:18:05;2.45;;;1.08;;
26181;SDS011;13927;51.534;11.866;2022-09-01T08:20:31;2.95;;;1.40;;
26181;SDS011;13927;51.534;11.866;2022-09-01T08:23:01;3.00;;;1.10;;
26181;SDS011;13927;51.534;11.866;2022-09-01T08:25:29;2.83;;;1.17;;
26181;SDS011;13927;51.534;11.866;2022-09-01T08:27:57;1.23;;;0.80;;
26181;SDS011;13927;51.534;11.866;2022-09-01T08:30:23;5.18;;;1.13;;
26181;SDS011;13927;51.534;11.866;2022-09-01T08:32:49;3.28;;;1.17;;
26181;SDS011;13927;51.534;11.866;2022-09-01T08:35:14;2.40;;;1.02;;
26181;SDS011;13927;51.534;11.866;2022-09-01T08:37:41;1.77;;;1.10;;
26181;SDS011;13927;51.534;11.866;2022-09-01T08:40:09;1.33;;;0.85;;
26181;SDS011;13927;51.534;11.866;2022-09-01T08:45:50;1.95;;;0.90;;
26181;SDS011;13927;51.534;11.866;2022-09-01T08:48:21;4.50;;;1.27;;
26181;SDS011;13927;51.534;11.866;2022-09-01T08:51:13;4.20;;;0.88;;
26181;SDS011;13927;51.534;11.866;2022-09-01T08:53:55;2.38;;;0.95;;
26181;SDS011;13927;51.534;11.866;2022-09-01T08:56:26;2.90;;;0.85;;
26181;SDS011;13927;51.534;11.866;2022-09-01T08:58:52;3.50;;;0.82;;
26181;SDS011;13927;51.534;11.866;2022-09-01T09:01:24;2.50;;;0.80;;
26181;SDS011;13927;51.534;11.866;2022-09-01T09:16:31;5.90;;;1.15;;
26181;SDS011;13927;51.534;11.866;2022-09-01T09:21:53;1.35;;;0.73;;
26181;SDS011;13927;51.534;11.866;2022-09-01T09:27:24;1.95;;;1.00;;
26181;SDS011;13927;51.534;11.866;2022-09-01T09:29:52;1.55;;;0.80;;
26181;SDS011;13927;51.534;11.866;2022-09-01T09:32:24;7.22;;;1.00;;
26181;SDS011;13927;51.534;11.866;2022-09-01T09:43:28;3.70;;;0.93;;
26181;SDS011;13927;51.534;11.866;2022-09-01T09:46:23;3.47;;;0.90;;
26181;SDS011;13927;51.534;11.866;2022-09-01T09:51:40;2.33;;;0.97;;
26181;SDS011;13927;51.534;11.866;2022-09-01T09:54:26;3.28;;;0.90;;
26181;SDS011;13927;51.534;11.866;2022-09-01T09:59:34;2.08;;;0.80;;
26181;SDS011;13927;51.534;11.866;2022-09-01T10:02:41;2.67;;;0.80;;
26181;SDS011;13927;51.534;11.866;2022-09-01T10:08:05;2.78;;;0.90;;
26181;SDS011;13927;51.534;11.866;2022-09-01T10:10:51;2.67;;;0.70;;
26181;SDS011;13927;51.534;11.866;2022-09-01T10:13:18;2.67;;;0.70;;
26181;SDS011;13927;51.534;11.866;2022-09-01T10:15:57;1.55;;;0.65;;
26181;SDS011;13927;51.534;11.866;2022-09-01T10:18:37;3.15;;;0.70;;
26181;SDS011;13927;51.534;11.866;2022-09-01T10:21:13;1.77;;;0.80;;
26181;SDS011;13927;51.534;11.866;2022-09-01T10:23:46;1.05;;;0.55;;
26181;SDS011;13927;51.534;11.866;2022-09-01T10:29:07;2.20;;;0.80;;
26181;SDS011;13927;51.534;11.866;2022-09-01T10:31:42;1.30;;;0.80;;
26181;SDS011;13927;51.534;11.866;2022-09-01T10:34:10;2.95;;;1.10;;
26181;SDS011;13927;51.534;11.866;2022-09-01T10:36:41;2.45;;;0.75;;
26181;SDS011;13927;51.534;11.866;2022-09-01T10:39:13;1.45;;;0.80;;
26181;SDS011;13927;51.534;11.866;2022-09-01T10:46:55;1.38;;;0.77;;
26181;SDS011;13927;51.534;11.866;2022-09-01T10:51:51;3.38;;;0.95;;
26181;SDS011;13927;51.534;11.866;2022-09-01T10:57:02;1.52;;;0.70;;
26181;SDS011;13927;51.534;11.866;2022-09-01T10:59:36;1.92;;;0.70;;
26181;SDS011;13927;51.534;11.866;2022-09-01T11:02:08;1.13;;;0.70;;
26181;SDS011;13927;51.534;11.866;2022-09-01T11:15:53;3.00;;;0.82;;
26181;SDS011;13927;51.534;11.866;2022-09-01T11:18:26;1.50;;;0.55;;
26181;SDS011;13927;51.534;11.866;2022-09-01T11:21:12;0.82;;;0.65;;
26181;SDS011;13927;51.534;11.866;2022-09-01T11:23:48;3.30;;;0.90;;
26181;SDS011;13927;51.534;11.866;2022-09-01T11:28:58;1.20;;;0.70;;
26181;SDS011;13927;51.534;11.866;2022-09-01T11:31:45;1.02;;;0.50;;
26181;SDS011;13927;51.534;11.866;2022-09-01T11:34:15;1.80;;;0.50;;
26181;SDS011;13927;51.534;11.866;2022-09-01T11:47:12;3.15;;;0.60;;
26181;SDS011;13927;51.534;11.866;2022-09-01T11:50:05;1.63;;;0.80;;
26181;SDS011;13927;51.534;11.866;2022-09-01T11:52:42;1.17;;;0.60;;
26181;SDS011;13927;51.534;11.866;2022-09-01T11:55:34;0.77;;;0.50;;
26181;SDS011;13927;51.534;11.866;2022-09-01T11:58:28;3.08;;;0.65;;
26181;SDS011;13927;51.534;11.866;2022-09-01T12:01:17;2.33;;;0.68;;
26181;SDS011;13927;51.534;11.866;2022-09-01T12:03:46;0.60;;;0.45;;
26181;SDS011;13927;51.534;11.866;2022-09-01T12:06:22;0.95;;;0.75;;
26181;SDS011;13927;51.534;11.866;2022-09-01T12:08:53;2.90;;;1.40;;
26181;SDS011;13927;51.534;11.866;2022-09-01T12:14:01;1.60;;;0.52;;
26181;SDS011;13927;51.534;11.866;2022-09-01T12:16:33;1.80;;;0.50;;
26181;SDS011;13927;51.534;11.866;2022-09-01T12:19:02;1.60;;;0.70;;
26181;SDS011;13927;51.534;11.866;2022-09-01T12:21:34;0.75;;;0.60;;
26181;SDS011;13927;51.534;11.866;2022-09-01T12:24:24;1.90;;;0.60;;
26181;SDS011;13927;51.534;11.866;2022-09-01T12:26:59;2.17;;;0.63;;
26181;SDS011;13927;51.534;11.866;2022-09-01T12:29:25;3.63;;;0.90;;
26181;SDS011;13927;51.534;11.866;2022-09-01T12:31:52;0.65;;;0.43;;
26181;SDS011;13927;51.534;11.866;2022-09-01T12:34:23;0.85;;;0.60;;
26181;SDS011;13927;51.534;11.866;2022-09-01T12:39:41;3.90;;;1.00;;
26181;SDS011;13927;51.534;11.866;2022-09-01T12:44:54;1.77;;;0.60;;
26181;SDS011;13927;51.534;11.866;2022-09-01T12:50:01;1.25;;;0.65;;
26181;SDS011;13927;51.534;11.866;2022-09-01T12:52:47;0.65;;;0.55;;
26181;SDS011;13927;51.534;11.866;2022-09-01T12:57:59;2.00;;;0.60;;
26181;SDS011;13927;51.534;11.866;2022-09-01T13:00:30;1.75;;;0.93;;
26181;SDS011;13927;51.534;11.866;2022-09-01T13:03:19;2.80;;;0.90;;
26181;SDS011;13927;51.534;11.866;2022-09-01T13:05:50;2.25;;;0.80;;
26181;SDS011;13927;51.534;11.866;2022-09-01T13:08:22;4.30;;;1.00;;
26181;SDS011;13927;51.534;11.866;2022-09-01T13:10:55;1.63;;;0.52;;
26181;SDS011;13927;51.534;11.866;2022-09-01T13:13:34;3.25;;;0.60;;
26181;SDS011;13927;51.534;11.866;2022-09-01T13:16:00;1.92;;;0.77;;
26181;SDS011;13927;51.534;11.866;2022-09-01T13:18:36;0.88;;;0.63;;
26181;SDS011;13927;51.534;11.866;2022-09-01T13:21:03;1.38;;;0.70;;
26181;SDS011;13927;51.534;11.866;2022-09-01T13:23:29;2.75;;;0.73;;
26181;SDS011;13927;51.534;11.866;2022-09-01T13:25:55;1.60;;;0.60;;
26181;SDS011;13927;51.534;11.866;2022-09-01T13:28:23;1.42;;;0.77;;
26181;SDS011;13927;51.534;11.866;2022-09-01T13:30:53;1.15;;;0.70;;
26181;SDS011;13927;51.534;11.866;2022-09-01T13:33:24;2.72;;;0.60;;
26181;SDS011;13927;51.534;11.866;2022-09-01T13:35:51;4.22;;;0.93;;
26181;SDS011;13927;51.534;11.866;2022-09-01T13:38:18;2.70;;;1.20;;
26181;SDS011;13927;51.534;11.866;2022-09-01T13:40:45;3.55;;;0.80;;
26181;SDS011;13927;51.534;11.866;2022-09-01T13:43:13;2.03;;;0.70;;
26181;SDS011;13927;51.534;11.866;2022-09-01T13:45:43;3.50;;;0.80;;
26181;SDS011;13927;51.534;11.866;2022-09-01T13:48:09;5.07;;;0.80;;
26181;SDS011;13927;51.534;11.866;2022-09-01T13:50:35;1.45;;;0.70;;
26181;SDS011;13927;51.534;11.866;2022-09-01T13:53:03;3.53;;;1.00;;
26181;SDS011;13927;51.534;11.866;2022-09-01T13:55:30;1.20;;;0.50;;
26181;SDS011;13927;51.534;11.866;2022-09-01T13:57:59;1.00;;;0.73;;
26181;SDS011;13927;51.534;11.866;2022-09-01T14:00:26;2.42;;;0.70;;
26181;SDS011;13927;51.534;11.866;2022-09-01T14:03:00;4.97;;;0.82;;
26181;SDS011;13927;51.534;11.866;2022-09-01T14:05:33;3.25;;;0.60;;
26181;SDS011;13927;51.534;11.866;2022-09-01T14:08:02;1.85;;;0.73;;
26181;SDS011;13927;51.534;11.866;2022-09-01T14:10:29;1.45;;;0.88;;
26181;SDS011;13927;51.534;11.866;2022-09-01T14:12:56;2.13;;;0.70;;
26181;SDS011;13927;51.534;11.866;2022-09-01T14:15:24;4.22;;;0.80;;
26181;SDS011;13927;51.534;11.866;2022-09-01T14:17:53;2.30;;;0.70;;
26181;SDS011;13927;51.534;11.866;2022-09-01T14:20:21;1.90;;;0.60;;
26181;SDS011;13927;51.534;11.866;2022-09-01T14:22:50;8.52;;;0.90;;
26181;SDS011;13927;51.534;11.866;2022-09-01T14:25:16;3.45;;;1.02;;
26181;SDS011;13927;51.534;11.866;2022-09-01T14:27:44;3.00;;;0.60;;
26181;SDS011;13927;51.534;11.866;2022-09-01T14:30:17;1.27;;;0.60;;
26181;SDS011;13927;51.534;11.866;2022-09-01T14:32:46;1.70;;;0.90;;
26181;SDS011;13927;51.534;11.866;2022-09-01T14:35:12;2.30;;;0.70;;
26181;SDS011;13927;51.534;11.866;2022-09-01T14:37:39;1.35;;;0.70;;
26181;SDS011;13927;51.534;11.866;2022-09-01T14:40:06;1.70;;;0.63;;
26181;SDS011;13927;51.534;11.866;2022-09-01T14:42:34;4.75;;;0.95;;
26181;SDS011;13927;51.534;11.866;2022-09-01T14:45:01;1.67;;;0.50;;
26181;SDS011;13927;51.534;11.866;2022-09-01T14:47:28;2.63;;;0.80;;
26181;SDS011;13927;51.534;11.866;2022-09-01T14:49:55;0.95;;;0.68;;
26181;SDS011;13927;51.534;11.866;2022-09-01T14:52:21;3.40;;;0.98;;
26181;SDS011;13927;51.534;11.866;2022-09-01T14:54:47;1.58;;;0.80;;
26181;SDS011;13927;51.534;11.866;2022-09-01T14:57:13;1.55;;;0.70;;
26181;SDS011;13927;51.534;11.866;2022-09-01T14:59:39;1.20;;;0.80;;
26181;SDS011;13927;51.534;11.866;2022-09-01T15:02:06;2.42;;;0.70;;
26181;SDS011;13927;51.534;11.866;2022-09-01T15:04:33;1.85;;;0.70;;
26181;SDS011;13927;51.534;11.866;2022-09-01T15:06:59;0.52;;;0.50;;
26181;SDS011;13927;51.534;11.866;2022-09-01T15:09:30;3.30;;;0.75;;
26181;SDS011;13927;51.534;11.866;2022-09-01T15:11:57;0.60;;;0.57;;
26181;SDS011;13927;51.534;11.866;2022-09-01T15:14:22;0.75;;;0.50;;
26181;SDS011;13927;51.534;11.866;2022-09-01T15:16:48;2.45;;;0.80;;
26181;SDS011;13927;51.534;11.866;2022-09-01T15:19:15;2.42;;;0.60;;
26181;SDS011;13927;51.534;11.866;2022-09-01T15:21:43;1.33;;;0.90;;
26181;SDS011;13927;51.534;11.866;2022-09-01T15:24:11;1.20;;;0.63;;
26181;SDS011;13927;51.534;11.866;2022-09-01T15:26:38;0.70;;;0.50;;
26181;SDS011;13927;51.534;11.866;2022-09-01T15:29:09;1.63;;;0.80;;
26181;SDS011;13927;51.534;11.866;2022-09-01T15:31:35;1.98;;;0.80;;
26181;SDS011;13927;51.534;11.866;2022-09-01T15:34:02;0.80;;;0.60;;
26181;SDS011;13927;51.534;11.866;2022-09-01T15:36:29;1.92;;;0.70;;
26181;SDS011;13927;51.534;11.866;2022-09-01T15:38:57;4.10;;;0.70;;
26181;SDS011;13927;51.534;11.866;2022-09-01T15:41:24;1.27;;;0.70;;
26181;SDS011;13927;51.534;11.866;2022-09-01T15:43:54;1.52;;;0.88;;
26181;SDS011;13927;51.534;11.866;2022-09-01T15:46:21;1.02;;;0.50;;
26181;SDS011;13927;51.534;11.866;2022-09-01T15:48:56;2.03;;;0.70;;
26181;SDS011;13927;51.534;11.866;2022-09-01T15:51:31;1.70;;;0.70;;
26181;SDS011;13927;51.534;11.866;2022-09-01T15:54:04;0.85;;;0.70;;
26181;SDS011;13927;51.534;11.866;2022-09-01T15:56:33;0.70;;;0.52;;
26181;SDS011;13927;51.534;11.866;2022-09-01T15:58:59;1.27;;;0.43;;
26181;SDS011;13927;51.534;11.866;2022-09-01T16:01:25;4.50;;;0.80;;
26181;SDS011;13927;51.534;11.866;2022-09-01T16:03:53;1.45;;;0.60;;
26181;SDS011;13927;51.534;11.866;2022-09-01T16:06:20;2.63;;;0.70;;
26181;SDS011;13927;51.534;11.866;2022-09-01T16:08:47;0.90;;;0.50;;
26181;SDS011;13927;51.534;11.866;2022-09-01T16:11:14;6.88;;;1.55;;
26181;SDS011;13927;51.534;11.866;2022-09-01T16:13:40;2.58;;;0.80;;
26181;SDS011;13927;51.534;11.866;2022-09-01T16:16:08;4.10;;;2.05;;
26181;SDS011;13927;51.534;11.866;2022-09-01T16:19:33;3.25;;;0.60;;
26181;SDS011;13927;51.534;11.866;2022-09-01T16:22:02;0.90;;;0.63;;
26181;SDS011;13927;51.534;11.866;2022-09-01T16:24:44;1.58;;;0.60;;